Time;durP1;ratioP1;P1;durP2;ratioP2;P2;SDS_P1;SDS_P2;PMS_P1;PMS_P2;Temp;Humidity;BMP_temperature;BMP_pressure;BME280_temperature;BME280_humidity;BME280_pressure;Samples;Min_cycle;Max_cycle;Signal;HPM_P1;HPM_P2
2021/09/27 00:00:38;;;;;;;5.82;1.63;;;;;;;20.90;75.80;99659.22;4992558;28;20030;-89
2021/09/27 00:03:04;;;;;;;7.80;1.33;;;;;;;20.79;76.54;99654.38;4992875;28;20038;-89
2021/09/27 00:05:31;;;;;;;6.55;1.33;;;;;;;20.96;75.71;99653.13;4992853;28;20062;-89
2021/09/27 00:07:56;;;;;;;5.13;1.10;;;;;;;20.79;76.79;99649.88;4993149;28;20500;-89
2021/09/27 00:10:29;;;;;;;5.85;1.30;;;;;;;20.83;76.98;99646.81;4992968;28;20027;-89
2021/09/27 00:12:54;;;;;;;4.43;1.38;;;;;;;21.00;75.57;99649.03;4992966;28;20018;-89
2021/09/27 00:15:25;;;;;;;5.88;0.85;;;;;;;21.05;75.49;99647.63;4993220;28;20157;-89
2021/09/27 00:17:51;;;;;;;6.47;0.90;;;;;;;20.90;76.47;99645.88;4992448;28;20038;-89
2021/09/27 00:20:17;;;;;;;3.05;0.90;;;;;;;20.69;78.13;99632.50;4992714;28;20392;-89
2021/09/27 00:22:43;;;;;;;3.85;0.88;;;;;;;21.06;76.00;99639.44;4992678;28;20061;-89
2021/09/27 00:25:09;;;;;;;2.85;0.70;;;;;;;20.96;76.62;99629.09;4991847;28;20100;-88
2021/09/27 00:27:34;;;;;;;4.72;0.65;;;;;;;20.55;78.76;99627.00;4992435;28;20030;-88
2021/09/27 00:30:00;;;;;;;4.15;1.23;;;;;;;20.92;76.46;99616.34;4992120;28;20142;-89
2021/09/27 00:32:27;;;;;;;2.67;0.50;;;;;;;20.77;76.37;99608.38;4992299;28;20054;-89
2021/09/27 00:34:52;;;;;;;32.42;3.65;;;;;;;20.23;78.19;99627.44;4992427;28;20489;-89
2021/09/27 00:37:18;;;;;;;2.60;0.55;;;;;;;19.97;80.23;99613.59;4992448;28;20034;-85
2021/09/27 00:39:43;;;;;;;1.42;0.50;;;;;;;20.46;77.43;99601.47;4991354;28;20030;-87
2021/09/27 00:42:08;;;;;;;6.07;0.68;;;;;;;20.74;76.21;99612.25;4992604;28;20110;-88
2021/09/27 00:44:34;;;;;;;3.45;0.60;;;;;;;20.74;75.82;99608.78;4992763;28;20473;-88
2021/09/27 00:46:59;;;;;;;1.40;0.38;;;;;;;20.89;75.76;99600.69;4991986;28;20045;-88
2021/09/27 00:49:24;;;;;;;3.15;0.50;;;;;;;20.79;75.52;99572.50;4992796;28;20026;-89
2021/09/27 00:51:50;;;;;;;5.70;0.50;;;;;;;20.49;77.54;99576.25;4992736;28;20029;-87
2021/09/27 00:54:25;;;;;;;0.50;0.22;;;;;;;20.83;76.02;99562.25;4994280;28;20077;-86
2021/09/27 00:56:55;;;;;;;4.90;0.80;;;;;;;20.51;76.27;99569.72;4994690;28;20030;-87
2021/09/27 00:59:23;;;;;;;4.13;0.90;;;;;;;20.67;76.52;99570.53;4995878;28;20404;-86
2021/09/27 01:01:49;;;;;;;8.35;2.05;;;;;;;20.43;77.50;99559.19;4995741;28;20109;-86
2021/09/27 01:04:14;;;;;;;8.73;1.60;;;;;;;20.41;78.37;99566.53;4996171;28;20513;-87
2021/09/27 01:07:01;;;;;;;10.80;1.70;;;;;;;20.41;77.89;99553.22;4995858;28;20484;-87
2021/09/27 01:10:08;;;;;;;9.07;1.98;;;;;;;20.72;76.25;99546.78;4993964;28;20113;-87
2021/09/27 01:13:07;;;;;;;8.32;1.83;;;;;;;20.70;76.34;99543.47;5003284;28;20034;-87
2021/09/27 01:15:41;;;;;;;8.07;1.30;;;;;;;20.35;77.47;99540.63;4995025;28;20030;-87
2021/09/27 01:18:28;;;;;;;14.00;1.45;;;;;;;20.34;78.99;99533.63;4995328;28;20114;-88
2021/09/27 01:21:05;;;;;;;8.55;1.65;;;;;;;20.21;79.05;99516.50;4995500;28;20030;-88
2021/09/27 01:24:02;;;;;;;10.93;1.13;;;;;;;20.68;76.57;99513.50;4994541;28;20030;-88
2021/09/27 01:26:55;;;;;;;12.50;1.73;;;;;;;20.49;77.92;99504.28;4995599;28;20034;-87
2021/09/27 01:29:42;;;;;;;8.38;1.40;;;;;;;20.58;76.93;99489.81;4995499;28;20449;-87
2021/09/27 01:32:19;;;;;;;6.57;1.15;;;;;;;20.67;76.61;99483.31;4995544;28;20022;-87
2021/09/27 01:35:09;;;;;;;10.18;1.30;;;;;;;20.24;78.98;99479.81;4994205;28;20022;-87
2021/09/27 01:37:46;;;;;;;9.23;1.40;;;;;;;20.71;76.58;99479.25;4994926;28;20118;-87
2021/09/27 01:40:38;;;;;;;12.25;2.05;;;;;;;20.76;76.08;99478.69;4995494;28;20413;-88
2021/09/27 01:43:48;;;;;;;8.07;1.60;;;;;;;20.38;79.34;99482.44;4995425;28;20029;-87
2021/09/27 01:46:22;;;;;;;12.23;1.73;;;;;;;20.38;78.11;99460.28;4993851;28;20081;-87
2021/09/27 01:48:48;;;;;;;15.13;2.03;;;;;;;20.44;79.12;99458.69;4975746;28;20433;-87
2021/09/27 01:51:23;;;;;;;12.80;2.47;;;;;;;20.69;77.57;99461.81;4976000;28;20035;-87
2021/09/27 01:53:51;;;;;;;9.23;1.63;;;;;;;20.50;78.36;99463.28;4989061;28;20036;-87
2021/09/27 01:56:28;;;;;;;14.45;1.90;;;;;;;20.51;78.03;99447.06;4994862;28;20041;-87
2021/09/27 01:59:18;;;;;;;9.10;2.08;;;;;;;20.56;77.94;99439.31;4994604;28;20022;-87
2021/09/27 02:01:51;;;;;;;12.00;1.65;;;;;;;20.91;76.33;99423.41;4994938;28;20026;-87
2021/09/27 02:04:32;;;;;;;10.50;1.85;;;;;;;20.52;78.53;99419.38;4994666;28;20026;-87
2021/09/27 02:07:00;;;;;;;9.82;2.03;;;;;;;20.50;78.82;99404.59;4977418;28;20492;-87
2021/09/27 02:09:46;;;;;;;11.90;2.03;;;;;;;21.03;76.11;99398.81;4992364;28;20042;-87
2021/09/27 02:12:20;;;;;;;11.85;2.03;;;;;;;20.82;76.50;99384.53;4994370;28;20026;-87
2021/09/27 02:14:55;;;;;;;10.05;1.70;;;;;;;20.84;76.82;99379.84;4994596;28;20023;-87
2021/09/27 02:17:44;;;;;;;7.35;1.60;;;;;;;20.77;77.08;99358.47;4992849;28;20141;-87
2021/09/27 02:20:16;;;;;;;15.82;2.80;;;;;;;20.76;77.06;99342.66;4974708;28;20497;-88
2021/09/27 02:22:41;;;;;;;15.20;2.05;;;;;;;20.52;77.94;99339.38;4974773;28;20055;-88
2021/09/27 02:25:18;;;;;;;11.63;2.20;;;;;;;20.51;77.91;99332.41;4974863;28;20062;-87
2021/09/27 02:27:45;;;;;;;18.83;2.60;;;;;;;20.33;79.59;99329.41;4979302;28;20026;-88
2021/09/27 02:30:15;;;;;;;8.55;1.45;;;;;;;20.60;78.00;99315.25;4994780;28;20208;-88
2021/09/27 02:33:09;;;;;;;9.07;1.98;;;;;;;20.70;77.17;99309.56;4994299;28;20033;-87
2021/09/27 02:35:45;;;;;;;13.32;2.42;;;;;;;20.40;79.40;99303.63;4994174;28;20072;-88
2021/09/27 02:38:23;;;;;;;11.75;2.10;;;;;;;20.64;78.10;99304.22;4994446;28;20244;-88
2021/09/27 02:41:08;;;;;;;10.05;2.35;;;;;;;20.68;77.78;99311.63;4994189;28;20026;-88
2021/09/27 02:43:34;;;;;;;16.83;2.53;;;;;;;20.84;77.03;99304.31;4993852;28;20037;-87
2021/09/27 02:45:59;;;;;;;11.32;2.35;;;;;;;20.42;79.90;99288.25;4993471;28;20030;-87
2021/09/27 02:48:38;;;;;;;19.48;2.88;;;;;;;20.72;77.46;99285.38;4993887;28;20030;-87
2021/09/27 02:51:05;;;;;;;13.55;2.33;;;;;;;20.59;78.71;99280.78;4993462;28;20058;-88
2021/09/27 02:53:31;;;;;;;18.48;2.60;;;;;;;20.64;77.63;99278.38;4993700;28;20030;-86
2021/09/27 02:56:14;;;;;;;12.32;2.70;;;;;;;20.38;78.80;99273.69;4993269;28;20073;-86
2021/09/27 02:58:58;;;;;;;15.27;2.50;;;;;;;20.91;77.02;99265.97;4973948;28;20035;-86
2021/09/27 03:01:38;;;;;;;12.10;2.05;;;;;;;20.76;77.94;99249.28;4974000;28;20405;-87
2021/09/27 03:04:35;;;;;;;19.08;2.78;;;;;;;20.83;76.69;99247.44;4972919;28;20477;-87
2021/09/27 03:07:28;;;;;;;13.48;2.67;;;;;;;20.64;78.78;99224.22;4974003;28;20034;-88
2021/09/27 03:10:01;;;;;;;17.90;2.78;;;;;;;20.59;79.90;99219.44;4973960;28;20035;-87
2021/09/27 03:12:39;;;;;;;10.32;2.72;;;;;;;20.44;81.62;99216.06;4987407;28;20035;-86
2021/09/27 03:15:31;;;;;;;23.42;3.17;;;;;;;20.17;83.95;99214.06;4993082;28;20030;-87
2021/09/27 03:18:17;;;;;;;21.83;2.97;;;;;;;20.50;81.89;99213.44;4992310;28;20113;-87
2021/09/27 03:21:09;;;;;;;14.20;2.88;;;;;;;20.48;80.34;99219.97;4993080;28;20034;-88
2021/09/27 03:23:43;;;;;;;;;;;;;;;20.43;81.40;99219.75;4993366;28;20026;-87
2021/09/27 03:26:40;;;;;;;16.92;2.70;;;;;;;20.46;80.55;99217.53;4992368;28;20376;-87
2021/09/27 03:29:23;;;;;;;14.75;1.95;;;;;;;20.41;80.69;99201.28;4992959;28;20397;-87
2021/09/27 03:31:56;;;;;;;18.65;2.13;;;;;;;20.25;81.14;99214.94;4993233;28;20060;-88
2021/09/27 03:34:42;;;;;;;14.77;2.55;;;;;;;20.36;80.43;99219.75;4992766;28;20031;-88
2021/09/27 03:37:29;;;;;;;9.63;2.10;;;;;;;20.39;79.68;99211.31;4992663;28;20038;-87
2021/09/27 03:40:19;;;;;;;9.43;1.90;;;;;;;20.28;79.42;99193.22;4992922;28;20050;-87
2021/09/27 03:43:19;;;;;;;19.23;2.40;;;;;;;20.33;79.03;99198.78;4992256;28;20397;-88
2021/09/27 03:46:03;;;;;;;13.15;2.00;;;;;;;20.59;76.95;99180.25;4991746;28;20039;-88
2021/09/27 03:48:54;;;;;;;12.90;2.42;;;;;;;20.50;76.96;99160.13;4993086;28;20022;-88
2021/09/27 03:51:30;;;;;;;14.23;2.67;;;;;;;20.64;76.31;99165.53;4984698;28;20141;-87
2021/09/27 03:54:00;;;;;;;11.02;1.63;;;;;;;20.44;76.66;99152.06;4993089;28;20026;-87
2021/09/27 03:56:40;;;;;;;11.32;2.05;;;;;;;20.36;77.16;99132.59;4992473;28;20085;-87
2021/09/27 03:59:18;;;;;;;13.48;2.08;;;;;;;20.51;76.81;99126.28;4992554;28;20058;-86
2021/09/27 04:01:55;;;;;;;16.50;1.92;;;;;;;20.38;77.38;99135.88;4991713;28;20404;-87
2021/09/27 04:04:39;;;;;;;13.60;2.28;;;;;;;20.44;77.38;99128.06;4992966;28;20401;-87
2021/09/27 04:07:56;;;;;;;14.77;2.25;;;;;;;20.52;76.81;99134.06;4992841;28;20034;-86
2021/09/27 04:10:39;;;;;;;22.52;2.00;;;;;;;20.51;77.28;99132.41;5005315;28;20117;-87
2021/09/27 04:13:16;;;;;;;22.17;2.22;;;;;;;20.48;77.80;99108.84;4992387;28;20551;-86
2021/09/27 04:16:19;;;;;;;13.38;2.40;;;;;;;20.08;80.96;99103.31;4992726;28;20421;-87
2021/09/27 04:19:20;;;;;;;12.85;1.90;;;;;;;20.16;81.16;99081.88;4992579;28;20125;-88
2021/09/27 04:22:03;;;;;;;14.00;2.70;;;;;;;20.23;81.95;99073.88;4992496;28;20027;-87
2021/09/27 04:25:01;;;;;;;20.02;2.35;;;;;;;20.50;79.60;99064.13;4992605;28;20481;-88
2021/09/27 04:27:30;;;;;;;16.20;2.65;;;;;;;20.29;81.82;99056.28;4992429;28;20104;-88
2021/09/27 04:29:58;;;;;;;17.55;2.97;;;;;;;20.39;81.30;99043.38;4990425;28;20037;-88
2021/09/27 04:32:32;;;;;;;13.27;2.55;;;;;;;20.65;79.64;99028.50;4977192;28;20105;-88
2021/09/27 04:35:02;;;;;;;11.88;1.40;;;;;;;20.18;83.04;99013.19;4976864;28;20374;-89
2021/09/27 04:37:29;;;;;;;20.60;2.88;;;;;;;20.08;83.32;99015.41;4976454;28;20062;-90
2021/09/27 04:39:55;;;;;;;7.40;1.70;;;;;;;20.10;83.77;99000.06;4976686;28;20393;-89
2021/09/27 04:42:55;;;;;;;18.95;1.80;;;;;;;19.86;87.05;98990.72;4976738;28;20110;-89
2021/09/27 04:45:42;;;;;;;9.32;1.35;;;;;;;19.99;85.81;98972.13;4995845;28;20114;-89
2021/09/27 04:48:37;;;;;;;6.55;1.92;;;;;;;20.12;84.43;98957.19;4996076;28;20036;-88
2021/09/27 04:51:14;;;;;;;6.78;1.60;;;;;;;19.85;86.93;98945.69;4996144;28;20023;-88
2021/09/27 04:54:05;;;;;;;4.40;1.35;;;;;;;19.99;86.05;98932.19;4995828;28;20030;-87
2021/09/27 04:57:07;;;;;;;6.10;0.90;;;;;;;20.01;85.01;98916.00;4987529;28;20197;-88
2021/09/27 04:59:49;;;;;;;3.05;0.90;;;;;;;19.69;88.57;98923.66;4995705;28;20488;-88
2021/09/27 05:02:38;;;;;;;4.38;0.70;;;;;;;20.09;85.08;98904.34;4995472;28;20125;-87
2021/09/27 05:05:15;;;;;;;3.80;0.60;;;;;;;19.53;89.39;98908.03;4995311;28;20058;-87
2021/09/27 05:07:46;;;;;;;6.75;0.70;;;;;;;19.94;87.49;98888.50;4995404;28;20092;-86
2021/09/27 05:10:38;;;;;;;7.80;0.60;;;;;;;19.77;88.14;98909.38;4995780;28;20034;-87
2021/09/27 05:13:28;;;;;;;4.75;1.00;;;;;;;19.55;84.85;99084.34;4995335;28;20026;-86
2021/09/27 05:16:22;;;;;;;2.67;0.80;;;;;;;18.53;79.86;99112.88;4995332;28;20034;-87
2021/09/27 05:19:12;;;;;;;0.98;0.10;;;;;;;17.73;76.40;99074.69;4994988;28;20113;-87
2021/09/27 05:21:49;;;;;;;0.38;0.15;;;;;;;17.90;77.56;99055.94;4995353;28;20033;-87
2021/09/27 05:24:52;;;;;;;1.92;0.20;;;;;;;17.93;75.88;99066.16;4994957;28;20022;-87
2021/09/27 05:27:38;;;;;;;0.82;0.20;;;;;;;18.00;74.76;99080.38;4995320;28;20030;-86
2021/09/27 05:30:06;;;;;;;0.93;0.20;;;;;;;18.04;74.09;99114.34;4994795;28;20068;-86
2021/09/27 05:33:03;;;;;;;1.20;0.40;;;;;;;17.61;74.56;99100.00;4994928;28;20037;-86
2021/09/27 05:36:03;;;;;;;1.90;0.20;;;;;;;17.40;75.84;99103.38;4994809;28;20033;-87
2021/09/27 05:38:38;;;;;;;3.50;0.20;;;;;;;17.41;75.79;99078.50;4983231;28;20049;-87
2021/09/27 05:41:22;;;;;;;3.70;0.55;;;;;;;16.75;78.30;99110.81;4994416;28;20041;-87
2021/09/27 05:44:06;;;;;;;4.75;0.50;;;;;;;16.55;79.09;99123.69;4994921;28;20026;-87
2021/09/27 05:47:18;;;;;;;4.22;0.70;;;;;;;16.12;79.25;99128.53;4994825;28;20038;-86
2021/09/27 05:50:06;;;;;;;4.55;0.82;;;;;;;16.41;78.24;99150.91;4982514;28;20053;-86
2021/09/27 05:52:45;;;;;;;1.20;0.57;;;;;;;16.18;78.95;99161.44;4986699;28;20037;-87
2021/09/27 05:55:36;;;;;;;1.08;0.30;;;;;;;16.08;77.81;99155.53;4992938;28;20127;-87
2021/09/27 05:58:12;;;;;;;3.28;0.30;;;;;;;16.24;77.54;99177.47;4990411;28;20106;-87
2021/09/27 06:00:51;;;;;;;1.23;0.25;;;;;;;15.92;80.55;99193.47;4995175;28;20058;-86
2021/09/27 06:03:35;;;;;;;3.25;0.10;;;;;;;15.97;80.59;99209.66;4994141;28;20037;-86
2021/09/27 06:06:38;;;;;;;4.97;0.50;;;;;;;15.79;79.54;99210.66;4994110;28;20023;-86
2021/09/27 06:09:28;;;;;;;2.90;0.40;;;;;;;16.17;79.07;99221.53;5006907;28;20436;-86
2021/09/27 06:12:06;;;;;;;1.83;0.10;;;;;;;15.95;78.59;99232.81;4993758;28;20116;-86
2021/09/27 06:14:33;;;;;;;3.00;0.20;;;;;;;15.96;77.59;99231.84;4993344;28;20033;-86
2021/09/27 06:17:28;;;;;;;0.38;0.10;;;;;;;16.26;76.01;99222.31;4993522;28;20062;-86
2021/09/27 06:20:12;;;;;;;0.65;0.17;;;;;;;15.44;77.41;99233.81;4988898;28;20037;-86
2021/09/27 06:23:29;;;;;;;3.83;0.13;;;;;;;16.16;74.55;99222.50;4989259;28;20026;-87
2021/09/27 06:26:08;;;;;;;2.47;0.20;;;;;;;16.08;74.37;99204.00;5009185;28;20061;-88
2021/09/27 06:28:58;;;;;;;0.10;0.10;;;;;;;15.77;72.67;99223.22;4993968;28;20065;-87
2021/09/27 06:31:37;;;;;;;0.32;0.10;;;;;;;15.46;73.97;99242.41;4993677;28;20038;-87
2021/09/27 06:34:33;;;;;;;1.73;0.10;;;;;;;15.91;73.15;99255.31;4974192;28;20030;-87
2021/09/27 06:37:01;;;;;;;1.63;0.20;;;;;;;15.76;72.50;99279.00;4987220;28;20026;-87
2021/09/27 06:39:29;;;;;;;0.20;0.20;;;;;;;15.68;74.77;99295.66;4993323;28;20037;-87
2021/09/27 06:41:55;;;;;;;0.47;0.10;;;;;;;15.26;74.48;99297.41;4993589;28;20052;-86
2021/09/27 06:44:22;;;;;;;0.30;0.20;;;;;;;15.84;73.58;99293.03;4993689;28;20025;-87
2021/09/27 06:46:48;;;;;;;2.38;0.22;;;;;;;15.96;72.76;99316.53;4992962;28;20056;-87
2021/09/27 06:49:14;;;;;;;2.50;0.20;;;;;;;16.14;71.65;99329.59;4993397;28;20073;-87
2021/09/27 06:51:44;;;;;;;0.57;0.20;;;;;;;16.29;70.45;99350.94;4992853;28;20058;-87
2021/09/27 06:54:13;;;;;;;3.55;0.20;;;;;;;16.19;72.63;99367.84;4993469;28;20473;-87
2021/09/27 06:56:39;;;;;;;3.63;0.20;;;;;;;16.50;71.27;99368.97;4993184;28;20045;-87
2021/09/27 06:59:05;;;;;;;4.38;0.20;;;;;;;16.73;70.76;99387.66;4993304;28;20030;-87
2021/09/27 07:01:31;;;;;;;1.13;0.20;;;;;;;16.61;71.99;99392.47;4993158;28;20504;-87
2021/09/27 07:03:56;;;;;;;0.22;0.17;;;;;;;16.57;71.69;99407.06;4992912;28;20030;-88
2021/09/27 07:06:21;;;;;;;1.08;0.20;;;;;;;16.43;71.43;99424.47;4992608;28;20504;-86
2021/09/27 07:08:47;;;;;;;5.55;0.90;;;;;;;16.29;72.34;99422.44;4992948;28;20076;-86
2021/09/27 07:11:14;;;;;;;0.80;0.13;;;;;;;16.60;70.48;99430.56;4993210;28;20027;-87
2021/09/27 07:13:39;;;;;;;16.33;0.40;;;;;;;16.74;69.50;99432.53;4993244;28;20365;-86
2021/09/27 07:16:05;;;;;;;19.80;2.30;;;;;;;16.68;69.97;99451.75;4992956;28;20069;-87
2021/09/27 07:18:31;;;;;;;2.38;0.10;;;;;;;16.73;68.12;99456.56;4992591;28;20030;-88
2021/09/27 07:20:58;;;;;;;0.68;0.30;;;;;;;16.84;67.57;99472.16;4991858;28;20029;-88
2021/09/27 07:23:27;;;;;;;0.68;0.20;;;;;;;16.78;66.73;99470.97;4991646;28;20113;-88
2021/09/27 07:25:53;;;;;;;0.52;0.17;;;;;;;16.83;66.44;99499.66;4991670;28;20029;-88
2021/09/27 07:28:21;;;;;;;1.45;0.30;;;;;;;16.22;66.97;99501.75;4992592;28;20030;-88
2021/09/27 07:30:48;;;;;;;0.95;0.30;;;;;;;16.71;64.26;99511.56;4991738;28;20029;-88
2021/09/27 07:33:14;;;;;;;3.83;0.47;;;;;;;16.78;65.22;99521.31;4988780;28;20059;-88
2021/09/27 07:35:39;;;;;;;0.98;0.35;;;;;;;17.50;63.75;99522.44;4991809;28;20084;-88
2021/09/27 07:38:05;;;;;;;0.88;0.47;;;;;;;17.21;65.40;99523.81;4991504;28;20046;-88
2021/09/27 07:40:33;;;;;;;1.20;0.85;;;;;;;17.20;63.97;99527.44;4991647;28;20189;-88
2021/09/27 07:42:58;;;;;;;1.38;0.60;;;;;;;17.23;64.42;99532.44;4991437;28;20060;-88
2021/09/27 07:45:26;;;;;;;2.75;0.80;;;;;;;18.33;64.00;99539.66;4991801;28;20080;-88
2021/09/27 07:47:52;;;;;;;2.35;0.80;;;;;;;18.68;59.65;99545.41;4992020;28;20105;-88
2021/09/27 07:50:17;;;;;;;2.72;1.33;;;;;;;19.19;59.37;99551.81;4992716;28;20038;-88
2021/09/27 07:52:43;;;;;;;3.47;0.57;;;;;;;20.57;55.10;99562.81;4992275;28;20018;-88
2021/09/27 07:55:10;;;;;;;4.13;0.90;;;;;;;21.41;53.37;99580.81;4992286;28;20327;-88
2021/09/27 07:57:35;;;;;;;1.83;0.50;;;;;;;22.34;53.37;99584.00;4992205;28;20049;-88
2021/09/27 08:00:01;;;;;;;1.17;0.50;;;;;;;23.20;50.01;99592.38;4992397;28;20026;-88
2021/09/27 08:02:30;;;;;;;2.65;0.68;;;;;;;22.92;48.65;99602.22;4992930;28;20113;-89
2021/09/27 08:04:57;;;;;;;4.43;0.50;;;;;;;23.63;48.44;99616.84;4996460;28;20029;-88
2021/09/27 08:07:23;;;;;;;4.55;0.50;;;;;;;23.36;50.22;99616.91;4996086;28;20034;-89
2021/09/27 08:09:49;;;;;;;2.05;0.60;;;;;;;23.53;46.93;99641.38;4994412;28;20033;-89
2021/09/27 08:12:14;;;;;;;0.95;0.43;;;;;;;24.35;45.64;99624.94;4994311;28;20109;-89
2021/09/27 08:14:40;;;;;;;4.30;0.68;;;;;;;23.50;47.09;99624.91;4994233;28;20038;-88
2021/09/27 08:17:05;;;;;;;3.05;0.73;;;;;;;24.86;45.37;99640.16;4994371;28;20030;-88
2021/09/27 08:19:31;;;;;;;3.60;0.75;;;;;;;25.00;45.36;99638.22;4994051;28;20034;-88
2021/09/27 08:21:56;;;;;;;7.50;0.70;;;;;;;24.96;44.53;99650.44;4994473;28;20077;-88
2021/09/27 08:24:22;;;;;;;2.30;0.90;;;;;;;24.96;47.02;99650.44;4995728;28;20457;-88
2021/09/27 08:26:47;;;;;;;3.08;0.82;;;;;;;24.43;44.92;99653.38;4995434;28;20026;-87
2021/09/27 08:29:13;;;;;;;2.10;0.30;;;;;;;23.20;46.42;99668.19;4992608;28;20027;-87
2021/09/27 08:31:40;;;;;;;1.75;0.50;;;;;;;24.50;45.03;99671.09;4993966;28;20027;-88
2021/09/27 08:34:07;;;;;;;3.00;0.50;;;;;;;25.05;42.07;99678.66;4995249;28;20476;-87
2021/09/27 08:36:33;;;;;;;2.05;0.45;;;;;;;24.95;44.64;99686.38;4995606;28;20397;-88
2021/09/27 08:38:58;;;;;;;1.73;0.30;;;;;;;25.89;42.18;99676.53;4995155;28;20034;-86
2021/09/27 08:41:24;;;;;;;3.58;0.43;;;;;;;24.42;46.62;99690.09;4995611;28;20388;-88
2021/09/27 08:44:13;;;;;;;3.17;0.40;;;;;;;24.78;41.92;99686.03;4990604;28;20031;-88
2021/09/27 08:46:54;;;;;;;2.35;0.77;;;;;;;25.41;42.60;99701.38;4976173;28;20035;-88
2021/09/27 08:49:34;;;;;;;2.10;0.30;;;;;;;25.87;41.58;99704.69;4989668;28;20054;-88
2021/09/27 08:52:00;;;;;;;1.80;0.30;;;;;;;26.47;41.31;99704.09;4995534;28;20291;-86
2021/09/27 08:54:29;;;;;;;2.58;0.50;;;;;;;24.96;43.82;99712.19;4994832;28;20046;-88
2021/09/27 08:57:06;;;;;;;2.05;0.30;;;;;;;25.60;42.37;99713.00;4992819;28;20031;-88
2021/09/27 09:00:01;;;;;;;1.45;0.30;;;;;;;26.90;39.50;99719.31;4995195;28;20022;-88
2021/09/27 09:02:42;;;;;;;1.70;0.40;;;;;;;26.77;39.66;99719.47;4994484;28;20084;-86
2021/09/27 09:05:07;;;;;;;1.95;0.40;;;;;;;26.17;41.70;99728.25;4994610;28;20114;-89
2021/09/27 09:07:39;;;;;;;0.93;0.30;;;;;;;27.43;39.68;99723.09;4994236;28;20113;-89
2021/09/27 09:10:07;;;;;;;3.92;0.68;;;;;;;26.50;42.23;99738.63;4975586;28;20503;-87
2021/09/27 09:12:35;;;;;;;5.95;0.60;;;;;;;26.67;39.43;99750.44;4975766;28;20705;-87
2021/09/27 09:15:21;;;;;;;5.22;0.77;;;;;;;25.55;43.26;99755.84;4975096;28;20046;-87
2021/09/27 09:18:02;;;;;;;3.42;0.77;;;;;;;24.93;43.71;99769.81;4975084;28;20449;-87
2021/09/27 09:20:30;;;;;;;2.60;0.73;;;;;;;23.43;47.62;99774.13;4975439;28;20026;-87
2021/09/27 09:22:58;;;;;;;2.80;0.70;;;;;;;21.95;49.37;99787.75;4980592;28;20023;-86
2021/09/27 09:25:31;;;;;;;3.17;0.50;;;;;;;20.39;52.11;99797.88;4994561;28;20133;-87
2021/09/27 09:27:58;;;;;;;3.60;0.55;;;;;;;21.35;54.36;99804.03;4994592;28;20034;-86
2021/09/27 09:30:33;;;;;;;2.17;0.43;;;;;;;20.97;54.86;99809.56;4994756;28;20504;-86
2021/09/27 09:32:59;;;;;;;1.33;0.40;;;;;;;20.47;54.89;99818.28;4994740;28;20084;-87
2021/09/27 09:35:28;;;;;;;5.93;0.60;;;;;;;20.78;54.03;99810.13;4994333;28;20018;-87
2021/09/27 09:38:05;;;;;;;15.13;1.70;;;;;;;20.73;54.08;99831.19;4994086;28;20104;-87
2021/09/27 09:40:33;;;;;;;61.38;6.05;;;;;;;19.61;57.93;99826.50;4994381;28;20504;-87
2021/09/27 09:43:36;;;;;;;1.67;0.50;;;;;;;19.92;58.37;99837.09;4994429;28;20069;-87
2021/09/27 09:46:12;;;;;;;2.83;0.50;;;;;;;20.01;56.79;99845.88;4993087;28;20105;-87
2021/09/27 09:49:01;;;;;;;7.00;0.82;;;;;;;19.57;59.86;99862.47;4992638;28;20030;-87
2021/09/27 09:51:34;;;;;;;5.95;1.10;;;;;;;20.03;57.75;99864.34;4992467;28;20080;-88
2021/09/27 09:54:25;;;;;;;2.55;0.60;;;;;;;19.79;58.82;99877.66;4993126;28;20062;-87
2021/09/27 09:57:19;;;;;;;5.00;1.23;;;;;;;19.89;57.96;99868.63;4989148;28;20489;-88
2021/09/27 10:00:07;;;;;;;4.53;0.90;;;;;;;19.83;58.35;99894.13;4973804;28;20039;-88
2021/09/27 10:02:35;;;;;;;4.60;0.60;;;;;;;19.81;58.20;99896.97;4990797;28;20521;-88
2021/09/27 10:05:16;;;;;;;10.57;0.93;;;;;;;19.78;60.43;99896.47;4993704;28;20026;-88
2021/09/27 10:07:49;;;;;;;6.13;0.80;;;;;;;18.98;60.77;99890.38;4994679;28;20033;-88
2021/09/27 10:10:33;;;;;;;23.90;1.95;;;;;;;19.48;61.10;99896.31;4989247;28;20022;-88
2021/09/27 10:13:03;;;;;;;4.65;0.70;;;;;;;19.44;61.10;99899.50;4993963;28;20037;-89
2021/09/27 10:15:28;;;;;;;4.05;0.70;;;;;;;19.20;60.88;99909.25;4993586;28;20026;-88
2021/09/27 10:18:25;;;;;;;31.35;2.92;;;;;;;19.87;63.16;99911.41;4993182;28;20045;-89
2021/09/27 10:21:06;;;;;;;6.53;0.93;;;;;;;20.38;57.93;99910.88;4974313;28;20043;-88
2021/09/27 10:23:42;;;;;;;18.33;2.22;;;;;;;21.17;58.27;99907.75;4984771;28;20061;-89
2021/09/27 10:26:34;;;;;;;14.50;1.05;;;;;;;21.67;56.41;99916.78;4992678;28;20038;-89
2021/09/27 10:29:17;;;;;;;19.42;3.33;;;;;;;22.64;55.55;99909.28;4993182;28;20066;-89
2021/09/27 10:31:53;;;;;;;6.43;1.33;;;;;;;23.32;50.75;99912.13;4993351;28;20072;-89
2021/09/27 10:34:21;;;;;;;2.17;0.38;;;;;;;23.67;51.16;99915.56;4992317;28;20030;-89
2021/09/27 10:36:52;;;;;;;7.40;1.17;;;;;;;23.58;50.91;99923.97;4991874;28;20073;-88
2021/09/27 10:39:20;;;;;;;3.67;0.45;;;;;;;24.25;50.67;99917.78;4990126;28;20436;-88
2021/09/27 10:42:01;;;;;;;6.13;0.80;;;;;;;23.34;48.42;99916.28;4992773;28;20093;-88
2021/09/27 10:44:42;;;;;;;4.20;0.70;;;;;;;23.80;46.83;99914.81;4996752;28;20404;-89
2021/09/27 10:47:16;;;;;;;5.40;1.27;;;;;;;25.03;45.50;99927.00;5000547;28;20030;-89
2021/09/27 10:49:48;;;;;;;6.10;0.70;;;;;;;24.61;46.68;99926.47;4998340;28;20034;-89
2021/09/27 10:52:16;;;;;;;5.38;0.65;;;;;;;25.04;45.15;99910.69;4997473;28;20033;-89
2021/09/27 10:54:44;;;;;;;3.72;0.50;;;;;;;24.51;43.65;99922.34;4999881;28;20058;-89
2021/09/27 10:57:19;;;;;;;5.68;0.75;;;;;;;25.02;44.47;99938.78;5007183;28;20109;-88
2021/09/27 10:59:55;;;;;;;4.25;0.63;;;;;;;25.69;45.25;99960.88;5006433;28;20034;-88
2021/09/27 11:02:38;;;;;;;6.82;0.65;;;;;;;26.24;40.67;99952.31;5001661;28;20180;-89
2021/09/27 11:05:21;;;;;;;3.47;0.52;;;;;;;26.72;41.73;99959.84;4996738;28;20057;-88
2021/09/27 11:07:50;;;;;;;2.92;0.50;;;;;;;25.49;42.48;99966.34;4999751;28;20030;-88
2021/09/27 11:10:45;;;;;;;2.78;0.73;;;;;;;26.09;42.44;99972.28;5000772;28;20023;-87
2021/09/27 11:13:35;;;;;;;14.48;1.67;;;;;;;26.56;40.92;99981.88;5008392;28;20054;-89
2021/09/27 11:16:07;;;;;;;9.30;0.93;;;;;;;24.74;42.53;99980.13;5000899;28;20022;-88
2021/09/27 11:18:33;;;;;;;8.27;0.85;;;;;;;24.97;42.72;99984.25;5005353;28;20029;-88
2021/09/27 11:21:19;;;;;;;2.40;0.45;;;;;;;25.14;43.42;99986.28;5009153;28;20456;-88
2021/09/27 11:23:46;;;;;;;3.38;0.50;;;;;;;24.92;44.39;100012.56;5003315;28;20029;-88
2021/09/27 11:26:30;;;;;;;4.45;0.60;;;;;;;24.39;43.27;100004.47;5000395;28;20064;-89
2021/09/27 11:29:14;;;;;;;5.07;0.73;;;;;;;25.33;40.43;100010.66;4995831;28;20097;-90
2021/09/27 11:31:41;;;;;;;4.85;0.65;;;;;;;24.74;40.18;99999.78;4993200;28;20030;-88
2021/09/27 11:34:31;;;;;;;2.20;0.70;;;;;;;24.94;41.34;100006.97;4995672;28;20029;-95
2021/09/27 11:37:18;;;;;;;4.53;0.52;;;;;;;24.86;41.06;100017.91;4985136;28;20046;-90
2021/09/27 11:39:46;;;;;;;6.88;0.77;;;;;;;25.61;40.67;100013.06;4993889;28;20385;-88
2021/09/27 11:42:20;;;;;;;2.58;0.55;;;;;;;25.08;39.52;100019.34;4995099;28;20534;-88
2021/09/27 11:45:14;;;;;;;1.27;0.30;;;;;;;25.11;39.20;100031.53;5003836;28;20046;-89
2021/09/27 11:47:42;;;;;;;1.42;0.25;;;;;;;26.46;37.56;100028.13;4992747;28;20030;-89
2021/09/27 11:50:44;;;;;;;3.17;0.40;;;;;;;25.56;39.25;100026.31;4995902;28;20572;-94
2021/09/27 11:53:20;;;;;;;1.70;0.40;;;;;;;24.90;37.44;100052.22;5008358;28;20481;-96
2021/09/27 11:56:06;;;;;;;1.17;0.28;;;;;;;25.48;37.19;100030.03;4986714;28;20496;-95
2021/09/27 11:59:07;;;;;;;3.50;0.57;;;;;;;25.71;36.41;100029.56;4989489;28;20537;-96
2021/09/27 12:01:54;;;;;;;3.45;0.32;;;;;;;25.28;36.31;100030.09;5009305;28;20073;-95
2021/09/27 12:04:54;;;;;;;2.08;0.40;;;;;;;26.49;37.26;100046.56;4996499;28;20034;-91
2021/09/27 12:07:24;;;;;;;3.30;0.25;;;;;;;25.91;36.32;100040.25;4989321;28;20425;-95
2021/09/27 12:10:08;;;;;;;4.22;0.32;;;;;;;25.98;36.25;100050.16;4984380;28;20030;-95
2021/09/27 12:12:51;;;;;;;3.85;0.50;;;;;;;26.57;35.23;100050.88;4989081;28;20034;-91
2021/09/27 12:15:22;;;;;;;3.13;0.35;;;;;;;26.76;37.33;100049.91;5007476;28;20057;-92
2021/09/27 12:17:49;;;;;;;1.98;0.40;;;;;;;26.31;36.10;100045.44;4999632;28;20469;-94